createdAt,value
2022-12-18T00:02:15.885Z,4.40
2022-12-18T00:04:42.655Z,3.00
2022-12-18T00:07:09.514Z,2.40
2022-12-18T00:09:39.573Z,3.50
2022-12-18T00:14:44.581Z,3.80
2022-12-18T00:17:11.305Z,3.90
2022-12-18T00:19:37.993Z,3.80
2022-12-18T00:22:04.753Z,3.80
2022-12-18T00:24:31.613Z,4.40
2022-12-18T00:26:58.334Z,4.00
2022-12-18T00:29:25.122Z,3.60
2022-12-18T00:31:51.907Z,4.10
2022-12-18T00:34:18.948Z,4.30
2022-12-18T00:36:48.969Z,4.10
2022-12-18T00:39:15.777Z,3.90
2022-12-18T00:42:03.238Z,4.10
2022-12-18T00:44:31.411Z,4.40
2022-12-18T00:46:58.137Z,4.30
2022-12-18T00:49:24.962Z,4.40
2022-12-18T00:51:51.705Z,4.40
2022-12-18T00:54:21.328Z,4.10
2022-12-18T00:56:49.867Z,4.30
2022-12-18T00:59:19.109Z,3.80
2022-12-18T01:01:46.530Z,4.60
2022-12-18T01:04:13.930Z,4.10
2022-12-18T01:06:41.297Z,4.10
2022-12-18T01:09:08.131Z,3.80
2022-12-18T01:11:37.356Z,3.70
2022-12-18T01:16:32.209Z,4.60
2022-12-18T01:18:59.111Z,3.80
2022-12-18T01:21:28.154Z,4.10
2022-12-18T01:23:56.545Z,4.10
2022-12-18T01:26:25.684Z,4.90
2022-12-18T01:28:52.903Z,4.20
2022-12-18T01:31:23.564Z,3.90
2022-12-18T01:33:51.601Z,3.90
2022-12-18T01:36:21.929Z,4.90
2022-12-18T01:38:49.261Z,4.00
2022-12-18T01:41:18.665Z,3.10
2022-12-18T01:43:56.090Z,3.10
2022-12-18T01:46:24.767Z,3.40
2022-12-18T01:49:02.442Z,4.20
2022-12-18T01:51:31.882Z,3.90
2022-12-18T01:54:00.603Z,3.80
2022-12-18T01:56:27.824Z,3.80
2022-12-18T01:59:00.916Z,3.90
2022-12-18T02:01:29.992Z,3.70
2022-12-18T02:03:57.540Z,3.20
2022-12-18T02:06:28.701Z,2.90
2022-12-18T02:09:25.874Z,3.00
2022-12-18T02:12:22.310Z,3.30
2022-12-18T02:15:39.831Z,3.60
2022-12-18T02:21:28.354Z,2.80
2022-12-18T02:24:19.211Z,3.80
2022-12-18T02:26:52.672Z,3.30
2022-12-18T02:29:29.922Z,4.50
2022-12-18T02:32:03.348Z,3.80
2022-12-18T02:34:33.642Z,3.90
2022-12-18T02:39:31.978Z,3.30
2022-12-18T02:42:08.698Z,3.30
2022-12-18T02:44:43.284Z,3.50
2022-12-18T02:47:13.653Z,3.10
2022-12-18T02:49:44.225Z,3.90
2022-12-18T02:52:40.072Z,3.00
2022-12-18T02:55:07.082Z,3.40
2022-12-18T02:57:36.866Z,3.90
2022-12-18T03:00:19.609Z,3.40
2022-12-18T03:02:56.781Z,3.60
2022-12-18T03:05:39.629Z,3.70
2022-12-18T03:08:13.430Z,3.10
2022-12-18T03:10:51.959Z,3.20
2022-12-18T03:13:29.616Z,3.80
2022-12-18T03:15:59.462Z,3.60
2022-12-18T03:18:31.585Z,3.50
2022-12-18T03:21:04.136Z,3.90
2022-12-18T03:23:40.691Z,3.70
2022-12-18T03:26:12.690Z,3.60
2022-12-18T03:28:47.019Z,3.30
2022-12-18T03:33:52.352Z,3.60
2022-12-18T03:36:19.545Z,3.00
2022-12-18T03:38:46.370Z,3.20
2022-12-18T03:41:36.643Z,3.10
2022-12-18T03:44:41.291Z,3.60
2022-12-18T03:47:11.300Z,2.90
2022-12-18T03:49:54.239Z,2.90
2022-12-18T03:52:37.335Z,3.80
2022-12-18T03:55:08.173Z,3.60
2022-12-18T03:57:35.801Z,4.20
2022-12-18T04:00:09.446Z,4.30
2022-12-18T04:02:55.080Z,4.10
2022-12-18T04:05:28.285Z,3.40
2022-12-18T04:07:57.674Z,3.10
2022-12-18T04:10:24.726Z,3.20
2022-12-18T04:12:51.853Z,3.30
2022-12-18T04:15:19.306Z,3.60
2022-12-18T04:17:50.470Z,3.60
2022-12-18T04:20:19.845Z,4.30
2022-12-18T04:22:46.765Z,4.00
2022-12-18T04:25:14.275Z,3.70
2022-12-18T04:27:52.332Z,4.70
2022-12-18T04:30:19.057Z,3.80
2022-12-18T04:32:51.912Z,4.50
2022-12-18T04:35:19.701Z,3.50
2022-12-18T04:37:47.436Z,4.20
2022-12-18T04:40:15.565Z,3.50
2022-12-18T04:42:44.423Z,3.00
2022-12-18T04:45:11.391Z,3.30
2022-12-18T04:47:38.150Z,3.70
2022-12-18T04:50:05.472Z,3.10
2022-12-18T04:52:32.171Z,3.80
2022-12-18T04:54:58.872Z,3.30
2022-12-18T04:57:25.627Z,3.50
2022-12-18T04:59:52.341Z,4.00
2022-12-18T05:02:20.534Z,3.20
2022-12-18T05:04:47.347Z,3.80
2022-12-18T05:07:14.029Z,3.70
2022-12-18T05:09:40.804Z,3.60
2022-12-18T05:12:08.597Z,3.60
2022-12-18T05:14:35.359Z,3.00
2022-12-18T05:17:02.068Z,3.40
2022-12-18T05:19:28.836Z,5.20
2022-12-18T05:21:55.544Z,6.10
2022-12-18T05:24:22.272Z,8.80
2022-12-18T05:26:49.000Z,5.10
2022-12-18T05:29:15.758Z,4.90
2022-12-18T05:31:43.116Z,3.50
2022-12-18T05:34:10.388Z,4.90
2022-12-18T05:36:38.158Z,4.70
2022-12-18T05:39:04.899Z,5.50
2022-12-18T05:41:33.082Z,3.70
2022-12-18T05:44:00.242Z,4.90
2022-12-18T05:46:27.143Z,8.40
2022-12-18T05:48:53.951Z,9.40
2022-12-18T05:51:22.803Z,4.90
2022-12-18T05:53:49.559Z,5.20
2022-12-18T05:56:19.463Z,5.10
2022-12-18T05:58:47.344Z,4.40
2022-12-18T06:01:18.036Z,4.90
2022-12-18T06:03:45.796Z,5.30
2022-12-18T06:06:25.083Z,5.20
2022-12-18T06:08:52.737Z,6.20
2022-12-18T06:11:25.756Z,5.80
2022-12-18T06:13:58.273Z,5.30
2022-12-18T06:16:27.437Z,6.70
2022-12-18T06:18:56.972Z,5.00
2022-12-18T06:21:23.780Z,5.80
2022-12-18T06:23:50.483Z,5.40
2022-12-18T06:26:17.228Z,5.40
2022-12-18T06:28:43.994Z,4.40
2022-12-18T06:31:11.210Z,5.40
2022-12-18T06:33:39.077Z,6.00
2022-12-18T06:36:09.219Z,4.80
2022-12-18T06:38:38.123Z,5.10
2022-12-18T06:41:10.065Z,5.40
2022-12-18T06:43:37.826Z,4.70
2022-12-18T06:46:06.451Z,5.30
2022-12-18T06:48:34.263Z,5.80
2022-12-18T06:51:01.466Z,5.40
2022-12-18T06:53:28.596Z,5.90
2022-12-18T06:56:09.175Z,6.10
2022-12-18T06:58:36.969Z,5.70
2022-12-18T07:01:05.727Z,5.00
2022-12-18T07:03:32.860Z,6.60
2022-12-18T07:05:59.682Z,5.00
2022-12-18T07:08:26.361Z,5.10
2022-12-18T07:10:56.466Z,5.60
2022-12-18T07:13:24.241Z,6.00
2022-12-18T07:15:50.964Z,5.50
2022-12-18T07:18:17.701Z,5.50
2022-12-18T07:20:45.226Z,4.70
2022-12-18T07:23:12.828Z,5.80
2022-12-18T07:25:40.543Z,4.80
2022-12-18T07:30:34.434Z,5.70
2022-12-18T07:33:01.263Z,5.90
2022-12-18T07:35:27.982Z,5.30
2022-12-18T07:37:54.735Z,5.90
2022-12-18T07:40:21.598Z,5.50
2022-12-18T07:42:48.339Z,5.10
2022-12-18T07:45:15.160Z,4.50
2022-12-18T07:47:42.350Z,5.20
2022-12-18T07:50:09.280Z,6.30
2022-12-18T07:52:36.118Z,5.40
2022-12-18T07:55:03.838Z,5.30
2022-12-18T08:05:11.543Z,5.60
2022-12-18T08:07:38.264Z,5.60
2022-12-18T08:10:05.355Z,5.40
2022-12-18T08:12:33.207Z,6.00
2022-12-18T08:14:59.885Z,4.80
2022-12-18T08:17:26.616Z,4.60
2022-12-18T08:19:53.370Z,5.40
2022-12-18T08:22:20.090Z,5.30
2022-12-18T08:24:46.803Z,5.30
2022-12-18T08:27:29.065Z,5.70
2022-12-18T08:29:57.609Z,4.90
2022-12-18T08:32:25.753Z,5.00
2022-12-18T08:34:52.547Z,5.70
2022-12-18T08:37:19.274Z,5.10
2022-12-18T08:39:46.149Z,6.40
2022-12-18T08:42:31.635Z,5.90
2022-12-18T08:44:58.334Z,5.70
2022-12-18T08:47:25.188Z,7.80
2022-12-18T08:49:51.883Z,6.70
2022-12-18T08:52:18.695Z,6.70
2022-12-18T08:54:45.621Z,6.80
2022-12-18T08:57:12.296Z,8.50
2022-12-18T08:59:38.991Z,6.70
2022-12-18T09:02:05.837Z,6.80
2022-12-18T09:04:32.761Z,6.90
2022-12-18T09:06:59.448Z,8.30
2022-12-18T09:09:26.149Z,7.60
2022-12-18T09:11:52.947Z,6.70
2022-12-18T09:14:19.662Z,7.40
2022-12-18T09:16:46.474Z,7.40
2022-12-18T09:19:13.339Z,7.10
2022-12-18T09:21:43.374Z,6.80
2022-12-18T09:24:14.988Z,8.00
2022-12-18T09:26:41.772Z,7.40
2022-12-18T09:29:10.510Z,6.10
2022-12-18T09:31:39.209Z,6.00
2022-12-18T09:34:06.050Z,6.80
2022-12-18T09:36:32.742Z,7.10
2022-12-18T09:39:03.730Z,7.00
2022-12-18T09:41:48.367Z,6.90
2022-12-18T09:44:23.430Z,7.40
2022-12-18T09:47:19.895Z,7.20
2022-12-18T09:49:56.117Z,6.50
2022-12-18T09:52:46.819Z,7.40
2022-12-18T09:55:37.261Z,6.70
2022-12-18T09:58:10.534Z,7.60
2022-12-18T10:00:37.625Z,7.40
2022-12-18T10:03:13.549Z,8.00
2022-12-18T10:06:17.946Z,7.30
2022-12-18T10:08:59.074Z,6.10
2022-12-18T10:11:44.348Z,6.80
2022-12-18T10:14:24.570Z,7.00
2022-12-18T10:17:00.663Z,7.30
2022-12-18T10:19:50.302Z,6.40
2022-12-18T10:22:35.891Z,6.60
2022-12-18T10:25:19.713Z,5.70
2022-12-18T10:27:46.557Z,7.60
2022-12-18T10:30:20.225Z,6.70
2022-12-18T10:32:46.998Z,6.90
2022-12-18T10:35:24.206Z,7.50
2022-12-18T10:38:07.875Z,6.90
2022-12-18T10:40:49.597Z,7.00
2022-12-18T10:43:21.381Z,6.90
2022-12-18T10:46:21.620Z,6.90
2022-12-18T10:48:51.231Z,7.50
2022-12-18T10:51:27.084Z,6.70
2022-12-18T10:54:06.923Z,8.10
2022-12-18T10:56:38.004Z,6.50
2022-12-18T10:59:07.850Z,6.70
2022-12-18T11:01:56.072Z,6.10
2022-12-18T11:04:32.257Z,6.40
2022-12-18T11:07:04.454Z,6.40
2022-12-18T11:09:33.926Z,5.70
2022-12-18T11:12:04.679Z,5.70
2022-12-18T11:14:46.816Z,6.10
2022-12-18T11:17:26.527Z,6.40
2022-12-18T11:19:56.503Z,6.10
2022-12-18T11:22:29.718Z,6.90
2022-12-18T11:28:35.420Z,6.50
2022-12-18T11:31:32.413Z,7.00
2022-12-18T11:34:34.269Z,6.00
2022-12-18T11:37:04.495Z,6.70
2022-12-18T11:39:41.589Z,6.00
2022-12-18T11:42:42.793Z,7.40
2022-12-18T11:45:35.352Z,7.50
2022-12-18T11:48:13.948Z,6.90
2022-12-18T11:50:58.036Z,7.10
2022-12-18T11:53:27.179Z,7.80
2022-12-18T11:56:02.820Z,7.50
2022-12-18T11:58:57.234Z,5.80
2022-12-18T12:01:50.169Z,6.60
2022-12-18T12:04:25.945Z,5.90
2022-12-18T12:07:11.593Z,5.70
2022-12-18T12:09:47.057Z,7.20
2022-12-18T12:12:22.807Z,6.40
2022-12-18T12:15:14.203Z,6.30
2022-12-18T12:17:54.205Z,6.80
2022-12-18T12:20:48.910Z,8.00
2022-12-18T12:23:33.361Z,7.00
2022-12-18T12:26:12.112Z,7.20
2022-12-18T12:28:45.023Z,7.80
2022-12-18T12:31:47.110Z,8.70
2022-12-18T12:34:23.990Z,7.70
2022-12-18T12:36:53.511Z,7.90
2022-12-18T12:39:28.227Z,8.60
2022-12-18T12:42:14.587Z,9.00
2022-12-18T12:44:51.250Z,8.10
2022-12-18T12:47:33.999Z,8.10
2022-12-18T12:50:07.994Z,8.60
2022-12-18T12:52:41.029Z,9.10
2022-12-18T12:55:17.105Z,8.20
2022-12-18T12:58:37.222Z,7.70
2022-12-18T13:01:42.279Z,8.60
2022-12-18T13:04:34.564Z,8.20
2022-12-18T13:07:27.129Z,6.70
2022-12-18T13:10:22.408Z,8.60
2022-12-18T13:13:11.044Z,8.20
2022-12-18T13:15:46.796Z,7.80
2022-12-18T13:18:19.531Z,9.10
2022-12-18T13:21:01.556Z,8.20
2022-12-18T13:23:37.518Z,7.80
2022-12-18T13:26:07.376Z,8.80
2022-12-18T13:28:34.338Z,8.60
2022-12-18T13:31:02.767Z,8.00
2022-12-18T13:33:29.898Z,8.40
2022-12-18T13:36:34.775Z,7.50
2022-12-18T13:39:28.659Z,8.10
2022-12-18T13:42:05.409Z,8.50
2022-12-18T13:47:39.069Z,8.00
2022-12-18T13:50:28.687Z,8.00
2022-12-18T13:52:59.480Z,7.90
2022-12-18T13:55:26.546Z,7.80
2022-12-18T13:58:05.741Z,7.20
2022-12-18T14:00:32.804Z,7.60
2022-12-18T14:03:00.833Z,6.70
2022-12-18T14:05:38.777Z,7.30
2022-12-18T14:08:12.470Z,7.30
2022-12-18T14:10:49.747Z,6.00
2022-12-18T14:13:27.535Z,7.20
2022-12-18T14:15:54.964Z,6.70
2022-12-18T14:20:57.778Z,6.50
2022-12-18T14:23:36.576Z,6.40
2022-12-18T14:26:24.586Z,5.70
2022-12-18T14:28:51.928Z,7.20
2022-12-18T14:31:21.265Z,7.10
2022-12-18T14:33:48.714Z,7.50
2022-12-18T14:36:21.950Z,7.40
2022-12-18T14:38:51.321Z,6.40
2022-12-18T14:41:20.259Z,6.30
2022-12-18T14:43:50.197Z,6.30
2022-12-18T14:46:36.755Z,6.30
2022-12-18T14:49:18.924Z,6.30
2022-12-18T14:51:57.680Z,6.10
2022-12-18T14:54:26.171Z,6.30
2022-12-18T14:57:15.812Z,7.20
2022-12-18T14:59:42.587Z,6.80
2022-12-18T15:02:23.051Z,6.60
2022-12-18T15:05:12.951Z,7.00
2022-12-18T15:07:48.925Z,6.50
2022-12-18T15:10:15.622Z,8.90
2022-12-18T15:12:44.997Z,8.70
2022-12-18T15:15:33.748Z,9.00
2022-12-18T15:18:01.439Z,7.10
2022-12-18T15:25:38.311Z,8.30
2022-12-18T15:28:22.714Z,7.50
2022-12-18T15:31:19.840Z,7.90
2022-12-18T15:34:10.428Z,10.10
2022-12-18T15:36:37.591Z,8.60
2022-12-18T15:39:06.819Z,8.00
2022-12-18T15:41:36.544Z,8.90
2022-12-18T15:44:16.582Z,7.20
2022-12-18T15:46:43.304Z,7.00
2022-12-18T15:49:10.077Z,8.60
2022-12-18T15:51:38.457Z,8.40
2022-12-18T15:54:10.325Z,8.00
2022-12-18T15:56:55.702Z,8.00
2022-12-18T15:59:24.000Z,6.70
2022-12-18T16:01:53.989Z,7.30
2022-12-18T16:04:22.967Z,7.40
2022-12-18T16:07:13.721Z,7.40
2022-12-18T16:09:38.023Z,7.80
2022-12-18T16:12:05.670Z,7.40
2022-12-18T16:14:32.948Z,6.50
2022-12-18T16:17:02.538Z,7.70
2022-12-18T16:19:29.977Z,6.90
2022-12-18T16:21:59.043Z,7.30
2022-12-18T16:24:28.048Z,7.70
2022-12-18T16:26:56.737Z,6.00
2022-12-18T16:29:27.813Z,7.10
2022-12-18T16:31:59.249Z,7.30
2022-12-18T16:34:29.260Z,6.90
2022-12-18T16:37:05.607Z,6.70
2022-12-18T16:39:37.468Z,7.40
2022-12-18T16:42:15.483Z,7.00
2022-12-18T16:44:42.928Z,6.80
2022-12-18T16:47:10.440Z,7.00
2022-12-18T16:49:40.196Z,6.90
2022-12-18T16:52:08.176Z,7.80
2022-12-18T16:54:36.651Z,7.10
2022-12-18T16:57:05.498Z,7.90
2022-12-18T16:59:32.753Z,7.50
2022-12-18T17:01:59.668Z,7.90
2022-12-18T17:04:26.541Z,7.70
2022-12-18T17:06:53.981Z,7.90
2022-12-18T17:09:28.371Z,7.60
2022-12-18T17:11:55.238Z,7.70
2022-12-18T17:14:24.143Z,7.70
2022-12-18T17:17:19.371Z,6.80
2022-12-18T17:19:38.786Z,8.10
2022-12-18T17:22:05.615Z,8.00
2022-12-18T17:24:35.177Z,7.80
2022-12-18T17:27:03.128Z,8.10
2022-12-18T17:31:57.273Z,6.50
2022-12-18T17:34:25.554Z,7.70
2022-12-18T17:36:52.340Z,8.90
2022-12-18T17:39:20.903Z,7.70
2022-12-18T17:41:48.895Z,8.60
2022-12-18T17:44:16.794Z,7.60
2022-12-18T17:46:46.236Z,8.70
2022-12-18T17:49:14.248Z,9.50
2022-12-18T17:51:43.178Z,8.50
2022-12-18T17:54:11.117Z,7.80
2022-12-18T17:56:38.465Z,8.10
2022-12-18T17:59:05.394Z,8.00
2022-12-18T18:01:32.335Z,9.10
2022-12-18T18:04:00.711Z,10.20
2022-12-18T18:06:28.304Z,9.30
2022-12-18T18:08:57.017Z,8.20
2022-12-18T18:11:43.850Z,8.40
2022-12-18T18:14:17.342Z,8.50
2022-12-18T18:16:49.379Z,9.30
2022-12-18T18:19:19.291Z,9.90
2022-12-18T18:21:48.295Z,8.20
2022-12-18T18:24:18.420Z,9.00
2022-12-18T18:26:46.780Z,9.30
2022-12-18T18:29:20.838Z,9.90
2022-12-18T18:31:48.549Z,9.40
2022-12-18T18:36:47.224Z,10.50
2022-12-18T18:39:14.970Z,8.70
2022-12-18T18:41:42.240Z,9.70
2022-12-18T18:44:14.427Z,10.00
2022-12-18T18:46:41.220Z,10.20
2022-12-18T18:49:07.993Z,8.50
2022-12-18T18:51:35.423Z,8.40
2022-12-18T18:54:02.845Z,9.40
2022-12-18T18:59:18.409Z,8.80
2022-12-18T19:01:45.484Z,9.20
2022-12-18T19:04:12.720Z,12.00
2022-12-18T19:06:39.712Z,9.50
2022-12-18T19:09:07.478Z,10.00
2022-12-18T19:11:53.059Z,10.80
2022-12-18T19:14:20.471Z,9.20
2022-12-18T19:16:47.266Z,10.60
2022-12-18T19:19:14.217Z,9.10
2022-12-18T19:21:41.188Z,9.00
2022-12-18T19:24:09.554Z,10.60
2022-12-18T19:26:38.643Z,10.80
2022-12-18T19:29:08.033Z,10.60
2022-12-18T19:31:36.771Z,9.90
2022-12-18T19:34:08.313Z,11.10
2022-12-18T19:36:38.563Z,9.90
2022-12-18T19:39:17.261Z,9.80
2022-12-18T19:41:44.697Z,10.30
2022-12-18T19:44:17.128Z,9.20
2022-12-18T19:46:46.228Z,10.60
2022-12-18T19:49:17.537Z,9.40
2022-12-18T19:51:45.500Z,9.20
2022-12-18T19:54:17.114Z,8.10
2022-12-18T19:56:45.645Z,9.30
2022-12-18T19:59:12.855Z,8.60
2022-12-18T20:01:40.385Z,7.90
2022-12-18T20:04:07.451Z,10.90
2022-12-18T20:06:36.942Z,9.60
2022-12-18T20:09:06.640Z,9.00
2022-12-18T20:11:38.826Z,9.30
2022-12-18T20:14:08.989Z,9.10
2022-12-18T20:16:36.053Z,8.70
2022-12-18T20:19:04.386Z,8.50
2022-12-18T20:21:31.116Z,9.30
2022-12-18T20:23:59.952Z,8.60
2022-12-18T20:26:27.462Z,8.90
2022-12-18T20:28:55.057Z,8.90
2022-12-18T20:31:22.326Z,9.00
2022-12-18T20:33:51.111Z,10.00
2022-12-18T20:36:21.362Z,10.20
2022-12-18T20:38:54.725Z,9.50
2022-12-18T20:41:24.968Z,9.50
2022-12-18T20:43:52.016Z,8.30
2022-12-18T20:46:19.102Z,8.70
2022-12-18T20:48:46.305Z,8.20
2022-12-18T20:51:16.033Z,8.10
2022-12-18T20:53:43.660Z,8.90
2022-12-18T20:56:14.776Z,15.70
2022-12-18T20:58:45.633Z,8.90
2022-12-18T21:01:18.030Z,8.80
2022-12-18T21:03:48.799Z,9.00
2022-12-18T21:06:18.476Z,8.30
2022-12-18T21:08:45.242Z,8.50
2022-12-18T21:11:40.024Z,8.10
2022-12-18T21:14:10.846Z,8.00
2022-12-18T21:16:38.090Z,8.80
2022-12-18T21:19:04.825Z,10.00
2022-12-18T21:21:37.804Z,9.40
2022-12-18T21:24:06.633Z,8.60
2022-12-18T21:29:05.056Z,7.90
2022-12-18T21:31:34.621Z,7.90
2022-12-18T21:34:02.634Z,8.80
2022-12-18T21:36:31.466Z,9.40
2022-12-18T21:38:59.162Z,10.10
2022-12-18T21:41:46.205Z,9.60
2022-12-18T21:44:17.971Z,7.00
2022-12-18T21:46:52.821Z,7.90
2022-12-18T21:49:23.604Z,8.90
2022-12-18T21:51:52.970Z,8.40
2022-12-18T21:54:20.566Z,7.90
2022-12-18T21:56:57.583Z,8.50
2022-12-18T21:59:33.361Z,8.50
2022-12-18T22:02:03.400Z,8.50
2022-12-18T22:04:30.361Z,8.20
2022-12-18T22:06:57.257Z,10.90
2022-12-18T22:09:25.552Z,9.30
2022-12-18T22:11:53.783Z,8.90
2022-12-18T22:14:21.825Z,8.00
2022-12-18T22:16:49.133Z,8.80
2022-12-18T22:19:16.962Z,8.40
2022-12-18T22:21:48.721Z,8.20
2022-12-18T22:24:18.738Z,7.90
2022-12-18T22:26:47.111Z,8.10
2022-12-18T22:29:38.324Z,8.50
2022-12-18T22:32:07.078Z,7.90
2022-12-18T22:34:36.848Z,7.90
2022-12-18T22:37:06.653Z,7.70
2022-12-18T22:39:34.632Z,10.30
2022-12-18T22:42:02.417Z,9.00
2022-12-18T22:44:29.575Z,8.30
2022-12-18T22:47:06.203Z,8.70
2022-12-18T22:49:35.368Z,7.60
2022-12-18T22:52:03.852Z,8.00
2022-12-18T22:54:30.592Z,9.50
2022-12-18T22:56:57.399Z,7.60
2022-12-18T22:59:24.330Z,7.40
2022-12-18T23:01:55.412Z,7.80
2022-12-18T23:04:34.272Z,8.50
2022-12-18T23:07:06.785Z,6.90
2022-12-18T23:09:33.782Z,7.40
2022-12-18T23:12:01.528Z,7.90
2022-12-18T23:16:55.568Z,6.40
2022-12-18T23:19:23.729Z,6.10
2022-12-18T23:21:51.461Z,7.10
2022-12-18T23:24:18.290Z,6.90
2022-12-18T23:26:45.127Z,6.40
2022-12-18T23:29:11.824Z,6.50
2022-12-18T23:31:39.637Z,6.90
2022-12-18T23:34:08.815Z,6.90
2022-12-18T23:36:45.694Z,7.10
2022-12-18T23:39:28.504Z,6.70
2022-12-18T23:42:00.974Z,7.30
2022-12-18T23:44:27.926Z,6.90
2022-12-18T23:46:55.115Z,7.50
2022-12-18T23:49:22.125Z,8.60
2022-12-18T23:51:49.123Z,6.80
2022-12-18T23:54:16.280Z,6.90
2022-12-18T23:56:42.998Z,7.20
2022-12-18T23:59:09.935Z,6.90
